Time;durP1;ratioP1;P1;durP2;ratioP2;P2;SDS_P1;SDS_P2;PMS_P1;PMS_P2;Temp;Humidity;BMP_temperature;BMP_pressure;BME280_temperature;BME280_humidity;BME280_pressure;Samples;Min_cycle;Max_cycle;Signal;HPM_P1;HPM_P2
2024/01/29 00:01:56;;;;;;;56.53;13.13;;;26.10;35.40;;;;;;5083111;28;20289;-71
2024/01/29 00:04:23;;;;;;;56.90;13.47;;;26.10;34.80;;;;;;5086910;28;20287;-71
2024/01/29 00:06:50;;;;;;;62.47;13.03;;;26.10;34.80;;;;;;5072554;28;20203;-77
2024/01/29 00:09:18;;;;;;;86.77;15.30;;;26.10;34.80;;;;;;5067274;28;20257;-80
2024/01/29 00:11:46;;;;;;;59.33;13.33;;;26.10;34.80;;;;;;5076871;28;20203;-72
2024/01/29 00:14:13;;;;;;;60.40;13.37;;;26.10;34.80;;;;;;5085995;28;20764;-73
2024/01/29 00:16:40;;;;;;;61.20;12.63;;;26.10;34.80;;;;;;5072428;28;20206;-71
2024/01/29 00:19:07;;;;;;;72.07;13.60;;;26.10;34.90;;;;;;5068155;28;20567;-71
2024/01/29 00:21:34;;;;;;;92.67;15.80;;;26.10;34.80;;;;;;5067350;28;20261;-71
2024/01/29 00:24:01;;;;;;;67.27;13.53;;;26.10;34.80;;;;;;5072603;28;20203;-75
2024/01/29 00:26:28;;;;;;;65.93;13.33;;;26.10;34.80;;;;;;5070201;28;20265;-81
2024/01/29 00:28:57;;;;;;;67.30;13.90;;;26.10;34.80;;;;;;5074408;28;20202;-81
2024/01/29 00:31:24;;;;;;;60.17;13.80;;;26.10;34.80;;;;;;5087733;28;20381;-79
2024/01/29 00:33:52;;;;;;;66.23;13.93;;;26.10;34.80;;;;;;5089016;28;20252;-81
2024/01/29 00:36:19;;;;;;;70.90;13.10;;;26.10;34.80;;;;;;5078096;28;20209;-81
2024/01/29 00:38:46;;;;;;;115.90;16.43;;;26.10;34.80;;;;;;5064864;28;20318;-83
2024/01/29 00:41:13;;;;;;;60.43;13.57;;;26.10;34.80;;;;;;5073710;28;20199;-82
2024/01/29 00:43:40;;;;;;;50.70;13.07;;;26.10;34.80;;;;;;5088648;28;20297;-83
2024/01/29 00:46:08;;;;;;;64.73;13.80;;;26.10;35.50;;;;;;5082423;28;20703;-83
2024/01/29 00:48:35;;;;;;;69.90;12.83;;;26.10;34.90;;;;;;5075224;28;20203;-83
2024/01/29 00:51:03;;;;;;;101.50;15.53;;;26.10;34.90;;;;;;5066613;28;20310;-71
2024/01/29 00:53:30;;;;;;;98.73;15.73;;;26.10;34.90;;;;;;5066978;28;20326;-76
2024/01/29 00:55:59;;;;;;;107.70;15.43;;;26.10;34.90;;;;;;5068063;28;20195;-74
2024/01/29 00:58:25;;;;;;;63.07;12.97;;;26.10;34.90;;;;;;5078031;28;20198;-78
2024/01/29 01:00:52;;;;;;;51.20;14.03;;;26.10;34.90;;;;;;5067042;28;20315;-73
2024/01/29 01:03:21;;;;;;;66.27;13.70;;;26.10;34.90;;;;;;5065672;28;20283;-73
2024/01/29 01:05:48;;;;;;;49.47;12.60;;;26.10;34.90;;;;;;5067700;28;20306;-74
2024/01/29 01:08:15;;;;;;;98.37;15.50;;;26.10;34.90;;;;;;5066532;28;20205;-80
2024/01/29 01:10:42;;;;;;;57.60;13.77;;;25.60;34.60;;;;;;5067531;28;20294;-76
2024/01/29 01:13:09;;;;;;;67.07;13.87;;;26.00;34.80;;;;;;5066828;28;20282;-71
2024/01/29 01:15:36;;;;;;;66.93;13.57;;;26.00;34.80;;;;;;5067212;28;20267;-72
2024/01/29 01:18:03;;;;;;;59.00;13.57;;;26.00;34.90;;;;;;5068595;28;20203;-74
2024/01/29 01:20:32;;;;;;;56.23;12.53;;;26.00;34.80;;;;;;5086605;28;20209;-71
2024/01/29 01:23:00;;;;;;;98.67;16.87;;;26.00;34.80;;;;;;5073211;28;20204;-71
2024/01/29 01:25:27;;;;;;;60.77;13.90;;;26.00;34.80;;;;;;5066043;28;20279;-76
2024/01/29 01:27:53;;;;;;;69.20;14.83;;;26.00;34.90;;;;;;5066611;28;20279;-71
2024/01/29 01:30:22;;;;;;;61.23;14.00;;;26.00;34.80;;;;;;5068786;28;20230;-71
2024/01/29 01:32:49;;;;;;;61.27;15.67;;;26.10;34.90;;;;;;5072826;28;20667;-71
2024/01/29 01:35:16;;;;;;;63.37;13.50;;;26.00;34.80;;;;;;5075209;28;20312;-71
2024/01/29 01:37:44;;;;;;;75.00;13.70;;;26.00;34.80;;;;;;5076608;28;20825;-74
2024/01/29 01:40:12;;;;;;;52.03;13.03;;;26.00;34.80;;;;;;5068663;28;20230;-72
2024/01/29 01:42:40;;;;;;;79.10;15.00;;;26.00;34.80;;;;;;5075081;28;20702;-71
2024/01/29 01:45:08;;;;;;;66.17;13.47;;;26.00;34.80;;;;;;5086747;28;20651;-73
2024/01/29 01:47:36;;;;;;;62.27;13.53;;;26.00;34.80;;;;;;5087211;28;20313;-70
2024/01/29 01:50:04;;;;;;;93.87;14.73;;;26.00;34.80;;;;;;5083648;28;20234;-71
2024/01/29 01:52:32;;;;;;;52.47;13.33;;;26.00;34.80;;;;;;5066710;28;20187;-70
2024/01/29 01:55:00;;;;;;;60.73;12.63;;;26.00;34.90;;;;;;5067307;28;20606;-73
2024/01/29 01:57:29;;;;;;;58.73;12.53;;;26.00;34.80;;;;;;5065949;28;20210;-70
2024/01/29 01:59:56;;;;;;;58.83;13.33;;;26.00;34.90;;;;;;5072818;28;20201;-74
2024/01/29 02:02:23;;;;;;;89.63;14.97;;;26.10;34.90;;;;;;5080502;28;20321;-70
2024/01/29 02:04:50;;;;;;;63.10;13.70;;;26.00;34.90;;;;;;5070897;28;20206;-71
2024/01/29 02:07:17;;;;;;;44.67;12.07;;;26.00;34.80;;;;;;5085737;28;20648;-70
2024/01/29 02:09:45;;;;;;;60.57;12.93;;;26.00;34.80;;;;;;5073283;28;21177;-70
2024/01/29 02:12:13;;;;;;;64.23;14.73;;;26.00;34.90;;;;;;5071827;28;20301;-70
2024/01/29 02:14:40;;;;;;;51.83;12.47;;;26.00;34.80;;;;;;5070104;28;20215;-71
2024/01/29 02:17:07;;;;;;;72.33;13.97;;;26.00;34.90;;;;;;5086458;28;20285;-70
2024/01/29 02:19:34;;;;;;;55.90;12.43;;;26.00;34.80;;;;;;5081303;28;20973;-70
2024/01/29 02:22:01;;;;;;;62.83;12.70;;;26.00;34.80;;;;;;5070155;28;20295;-70
2024/01/29 02:24:29;;;;;;;63.73;13.50;;;26.00;34.90;;;;;;5070112;28;20233;-70
2024/01/29 02:26:56;;;;;;;48.87;12.63;;;26.00;34.80;;;;;;5084638;28;20285;-70
2024/01/29 02:29:23;;;;;;;58.47;13.23;;;26.00;34.80;;;;;;5085445;28;20206;-70
2024/01/29 02:31:50;;;;;;;94.67;15.67;;;26.00;34.90;;;;;;5071950;28;20221;-70
2024/01/29 02:34:16;;;;;;;57.87;12.83;;;26.00;34.90;;;;;;5085549;28;20230;-70
2024/01/29 02:36:44;;;;;;;72.37;13.90;;;26.00;34.90;;;;;;5086005;28;20238;-70
2024/01/29 02:39:12;;;;;;;65.10;13.30;;;26.00;34.90;;;;;;5069487;28;20203;-76
2024/01/29 02:41:40;;;;;;;58.93;14.07;;;26.00;34.80;;;;;;5068871;28;20195;-70
2024/01/29 02:44:07;;;;;;;52.87;12.07;;;26.00;34.90;;;;;;5084132;28;20256;-69
2024/01/29 02:46:34;;;;;;;83.87;14.77;;;26.00;34.90;;;;;;5085703;28;20314;-70
2024/01/29 02:49:01;;;;;;;84.87;15.60;;;26.00;34.90;;;;;;5082909;28;20209;-72
2024/01/29 02:51:28;;;;;;;63.37;13.10;;;26.00;34.90;;;;;;5084724;28;20289;-70
2024/01/29 02:53:55;;;;;;;71.23;14.13;;;26.00;34.90;;;;;;5084708;28;20274;-70
2024/01/29 02:56:22;;;;;;;54.77;12.93;;;26.00;34.90;;;;;;5068697;28;20200;-70
2024/01/29 02:58:50;;;;;;;61.17;13.43;;;26.00;34.90;;;;;;5065747;28;20306;-69
2024/01/29 03:01:19;;;;;;;88.37;15.53;;;26.00;34.90;;;;;;5066664;28;20214;-71
2024/01/29 03:03:46;;;;;;;108.23;15.93;;;26.00;34.90;;;;;;5066900;28;20200;-75
2024/01/29 03:06:13;;;;;;;59.53;13.47;;;26.00;34.90;;;;;;5072573;28;20213;-70
2024/01/29 03:08:40;;;;;;;55.80;13.30;;;26.00;34.90;;;;;;5088422;28;20202;-70
2024/01/29 03:11:06;;;;;;;61.40;13.03;;;26.00;34.90;;;;;;5090475;28;20198;-76
2024/01/29 03:13:33;;;;;;;56.73;13.53;;;25.90;34.80;;;;;;5073606;28;20199;-71
2024/01/29 03:16:02;;;;;;;67.97;13.27;;;26.00;34.90;;;;;;5071866;28;20223;-80
2024/01/29 03:18:29;;;;;;;64.07;14.43;;;26.00;34.90;;;;;;5069882;28;20215;-73
2024/01/29 03:20:55;;;;;;;98.90;15.80;;;25.90;34.90;;;;;;5074396;28;20195;-72
2024/01/29 03:23:22;;;;;;;55.23;12.90;;;25.90;34.80;;;;;;5087704;28;20202;-73
2024/01/29 03:25:49;;;;;;;129.43;17.53;;;25.90;34.90;;;;;;5080339;28;20191;-71
2024/01/29 03:28:17;;;;;;;60.87;13.33;;;25.90;34.80;;;;;;5083528;28;20234;-71
2024/01/29 03:30:44;;;;;;;54.20;13.07;;;26.00;34.90;;;;;;5076142;28;20210;-70
2024/01/29 03:33:12;;;;;;;60.17;13.47;;;26.00;34.90;;;;;;5088796;28;20200;-70
2024/01/29 03:35:39;;;;;;;48.70;12.07;;;25.90;34.90;;;;;;5079397;28;20222;-73
2024/01/29 03:38:06;;;;;;;71.00;15.63;;;25.90;34.90;;;;;;5086178;28;20203;-70
2024/01/29 03:40:33;;;;;;;63.57;13.00;;;25.90;34.90;;;;;;5088361;28;20272;-71
2024/01/29 03:43:00;;;;;;;73.83;13.17;;;26.00;35.00;;;;;;5089202;28;20217;-75
2024/01/29 03:45:27;;;;;;;48.93;13.57;;;25.90;34.90;;;;;;5084647;28;20194;-72
2024/01/29 03:47:53;;;;;;;61.10;13.20;;;26.00;35.00;;;;;;5071050;28;20199;-71
2024/01/29 03:50:22;;;;;;;53.30;13.67;;;25.90;34.90;;;;;;5068330;28;20210;-74
2024/01/29 03:52:50;;;;;;;59.07;12.97;;;26.00;35.00;;;;;;5069393;28;20188;-70
2024/01/29 03:55:17;;;;;;;63.30;15.93;;;26.00;35.00;;;;;;5069519;28;20229;-70
2024/01/29 03:57:45;;;;;;;60.10;13.87;;;25.90;35.00;;;;;;5084084;28;20688;-71
2024/01/29 04:00:12;;;;;;;62.13;13.03;;;25.90;35.00;;;;;;5074995;28;20200;-73
2024/01/29 04:02:39;;;;;;;59.53;13.10;;;25.90;34.90;;;;;;5079442;28;20199;-71
2024/01/29 04:05:09;;;;;;;76.07;14.17;;;26.00;35.00;;;;;;5086506;28;20202;-72
2024/01/29 04:07:38;;;;;;;110.80;16.70;;;25.90;35.00;;;;;;5071398;28;20207;-70
2024/01/29 04:10:05;;;;;;;60.60;12.83;;;25.90;35.00;;;;;;5078534;28;20224;-71
2024/01/29 04:12:33;;;;;;;63.33;12.53;;;25.90;35.00;;;;;;5069731;28;20803;-71
2024/01/29 04:15:00;;;;;;;66.63;13.43;;;25.90;35.00;;;;;;5068558;28;20270;-70
2024/01/29 04:17:27;;;;;;;66.57;13.80;;;26.00;35.00;;;;;;5081682;28;20719;-70
2024/01/29 04:19:54;;;;;;;80.43;14.30;;;25.90;35.00;;;;;;5065968;28;20199;-71
2024/01/29 04:22:21;;;;;;;56.60;12.93;;;25.90;35.00;;;;;;5082341;28;20190;-75
2024/01/29 04:24:49;;;;;;;87.90;14.50;;;25.90;35.00;;;;;;5082825;28;20659;-71
2024/01/29 04:27:16;;;;;;;72.30;16.33;;;25.90;35.00;;;;;;5068075;28;20484;-70
2024/01/29 04:29:43;;;;;;;47.77;12.07;;;25.90;35.00;;;;;;5067811;28;20823;-70
2024/01/29 04:32:10;;;;;;;61.87;12.60;;;25.90;34.90;;;;;;5067504;28;20218;-70
2024/01/29 04:34:36;;;;;;;60.93;12.50;;;26.00;35.00;;;;;;5068241;28;20231;-74
2024/01/29 04:37:04;;;;;;;62.17;13.70;;;25.90;35.00;;;;;;5067109;28;20210;-70
2024/01/29 04:39:31;;;;;;;61.83;14.30;;;25.90;35.00;;;;;;5067992;28;20211;-70
2024/01/29 04:41:59;;;;;;;78.37;13.87;;;26.00;35.10;;;;;;5066512;28;20210;-70
2024/01/29 04:44:26;;;;;;;63.97;13.97;;;25.90;35.00;;;;;;5080577;28;20203;-78
2024/01/29 04:46:54;;;;;;;54.63;13.40;;;26.00;35.10;;;;;;5085598;28;20227;-70
2024/01/29 04:49:21;;;;;;;86.60;26.10;;;25.90;35.00;;;;;;5082885;28;20274;-70
2024/01/29 04:51:48;;;;;;;64.80;18.80;;;25.90;35.00;;;;;;5070844;28;20203;-71
2024/01/29 04:54:15;;;;;;;72.47;13.50;;;25.90;35.00;;;;;;5071207;28;20207;-71
2024/01/29 04:56:42;;;;;;;98.40;16.90;;;25.90;35.00;;;;;;5076213;28;20305;-70
2024/01/29 04:59:10;;;;;;;65.00;14.57;;;25.90;35.00;;;;;;5069012;28;20203;-70
2024/01/29 05:01:37;;;;;;;69.30;14.47;;;25.90;35.00;;;;;;5066896;28;20196;-70
2024/01/29 05:04:04;;;;;;;63.20;14.27;;;25.90;35.00;;;;;;5067209;28;20511;-71
2024/01/29 05:06:31;;;;;;;65.63;13.37;;;25.90;35.00;;;;;;5081984;28;20206;-71
2024/01/29 05:08:58;;;;;;;78.23;13.83;;;25.90;35.00;;;;;;5074353;28;20190;-71
2024/01/29 05:11:25;;;;;;;49.53;12.23;;;25.90;35.00;;;;;;5075467;28;20294;-72
2024/01/29 05:13:53;;;;;;;55.40;13.00;;;25.90;35.00;;;;;;5083792;28;20209;-71
2024/01/29 05:16:21;;;;;;;57.13;13.33;;;25.90;35.00;;;;;;5084292;28;20365;-73
2024/01/29 05:18:49;;;;;;;64.00;12.87;;;25.90;35.00;;;;;;5068896;28;20196;-70
2024/01/29 05:21:17;;;;;;;55.80;13.87;;;25.90;35.00;;;;;;5066758;28;20206;-70
2024/01/29 05:23:44;;;;;;;55.57;13.93;;;25.90;35.00;;;;;;5067208;28;20310;-71
2024/01/29 05:26:11;;;;;;;85.67;14.23;;;25.90;35.00;;;;;;5069487;28;20914;-71
2024/01/29 05:28:38;;;;;;;64.37;13.60;;;25.90;35.00;;;;;;5066407;28;20314;-72
2024/01/29 05:31:05;;;;;;;123.50;17.00;;;25.90;35.00;;;;;;5073584;28;20206;-70
2024/01/29 05:33:34;;;;;;;65.63;12.80;;;25.90;35.10;;;;;;5087722;28;20225;-71
2024/01/29 05:36:00;;;;;;;96.60;14.33;;;25.90;35.00;;;;;;5086974;28;20221;-73
2024/01/29 05:38:27;;;;;;;59.90;12.87;;;25.90;35.10;;;;;;5086060;28;20283;-74
2024/01/29 05:40:54;;;;;;;69.83;13.90;;;25.90;35.10;;;;;;5070089;28;20447;-71
2024/01/29 05:43:21;;;;;;;69.77;13.37;;;25.90;35.10;;;;;;5074513;28;20283;-71
2024/01/29 05:45:48;;;;;;;67.57;13.10;;;25.90;35.10;;;;;;5066209;28;20227;-71
2024/01/29 05:48:15;;;;;;;71.77;13.33;;;25.90;35.10;;;;;;5079216;28;20286;-70
2024/01/29 05:50:43;;;;;;;73.93;13.00;;;25.90;35.10;;;;;;5066442;28;20207;-70
2024/01/29 05:53:10;;;;;;;66.73;13.50;;;25.90;35.10;;;;;;5081849;28;20677;-71
2024/01/29 05:55:37;;;;;;;56.97;12.50;;;25.90;35.10;;;;;;5086343;28;20625;-80
2024/01/29 05:58:06;;;;;;;121.80;16.00;;;25.90;35.10;;;;;;5083205;28;20811;-77
2024/01/29 06:00:32;;;;;;;53.40;13.27;;;25.90;35.10;;;;;;5065438;28;20199;-77
2024/01/29 06:03:00;;;;;;;57.73;11.93;;;25.90;35.10;;;;;;5064156;28;20209;-73
2024/01/29 06:05:27;;;;;;;65.63;13.37;;;25.90;35.10;;;;;;5080571;28;20201;-74
2024/01/29 06:07:55;;;;;;;63.27;13.73;;;25.90;35.20;;;;;;5085741;28;20260;-72
2024/01/29 06:10:23;;;;;;;56.00;13.67;;;25.90;35.10;;;;;;5064801;28;20665;-70
2024/01/29 06:12:49;;;;;;;96.03;15.07;;;25.90;35.10;;;;;;5065877;28;20203;-70
2024/01/29 06:15:16;;;;;;;55.17;12.57;;;25.90;35.10;;;;;;5074579;28;20231;-73
2024/01/29 06:17:43;;;;;;;60.97;15.77;;;25.90;35.10;;;;;;5065445;28;20673;-70
2024/01/29 06:20:12;;;;;;;64.63;13.53;;;25.90;35.10;;;;;;5075953;28;20206;-70
2024/01/29 06:22:39;;;;;;;61.13;13.03;;;25.90;35.10;;;;;;5071152;28;20201;-70
2024/01/29 06:25:08;;;;;;;68.07;13.63;;;25.90;35.10;;;;;;5086162;28;20187;-71
2024/01/29 06:27:35;;;;;;;58.27;12.77;;;25.90;35.10;;;;;;5086549;28;20294;-70
2024/01/29 06:30:02;;;;;;;55.43;13.50;;;25.90;35.20;;;;;;5073435;28;20217;-69
2024/01/29 06:32:29;;;;;;;74.47;14.33;;;25.90;35.10;;;;;;5063819;28;20717;-71
2024/01/29 06:34:57;;;;;;;66.67;13.57;;;25.90;35.10;;;;;;5067526;28;20205;-69
2024/01/29 06:37:24;;;;;;;62.47;14.20;;;25.90;35.10;;;;;;5085115;28;20665;-77
2024/01/29 06:39:52;;;;;;;84.43;14.97;;;25.90;35.10;;;;;;5065812;28;20202;-78
2024/01/29 06:42:20;;;;;;;95.53;15.30;;;25.90;35.10;;;;;;5072430;28;20199;-76
2024/01/29 06:44:47;;;;;;;67.53;14.17;;;25.90;35.10;;;;;;5079101;28;20199;-80
2024/01/29 06:47:15;;;;;;;60.80;13.43;;;25.90;35.20;;;;;;5074785;28;20313;-72
2024/01/29 06:49:42;;;;;;;65.23;16.17;;;25.90;35.20;;;;;;5082945;28;20210;-71
2024/01/29 06:52:09;;;;;;;89.40;14.33;;;25.90;35.10;;;;;;5067373;28;20239;-73
2024/01/29 06:54:36;;;;;;;50.97;13.30;;;25.90;35.80;;;;;;5085880;28;20195;-72
2024/01/29 06:57:04;;;;;;;65.77;14.70;;;25.90;35.10;;;;;;5074803;28;20231;-71
2024/01/29 06:59:32;;;;;;;49.77;12.47;;;25.90;35.20;;;;;;5073163;28;20211;-72
2024/01/29 07:01:59;;;;;;;60.77;14.10;;;25.90;35.20;;;;;;5064149;28;20256;-72
2024/01/29 07:04:26;;;;;;;55.83;13.10;;;25.90;35.20;;;;;;5075079;28;20293;-73
2024/01/29 07:06:55;;;;;;;69.97;15.43;;;25.90;35.20;;;;;;5075059;28;20205;-71
2024/01/29 07:09:21;;;;;;;65.87;14.30;;;26.00;35.20;;;;;;5074846;28;20205;-72
2024/01/29 07:11:48;;;;;;;50.30;14.23;;;25.90;35.80;;;;;;5083454;28;20706;-72
2024/01/29 07:14:15;;;;;;;88.27;17.60;;;25.90;35.20;;;;;;5081420;28;20289;-75
2024/01/29 07:16:44;;;;;;;64.23;17.57;;;25.90;35.20;;;;;;5069512;28;20230;-71
2024/01/29 07:19:11;;;;;;;72.77;17.60;;;25.90;35.20;;;;;;5085545;28;20195;-72
2024/01/29 07:21:38;;;;;;;63.60;18.13;;;25.90;35.20;;;;;;5084431;28;20209;-71
2024/01/29 07:24:05;;;;;;;104.53;21.13;;;26.00;35.30;;;;;;5076919;28;20242;-71
2024/01/29 07:26:33;;;;;;;62.60;17.57;;;26.00;35.20;;;;;;5071314;28;20300;-71
2024/01/29 07:29:00;;;;;;;72.67;18.33;;;25.90;35.20;;;;;;5067576;28;20190;-71
2024/01/29 07:31:28;;;;;;;59.93;18.60;;;25.90;35.80;;;;;;5074173;28;20302;-78
2024/01/29 07:33:56;;;;;;;107.60;22.93;;;26.00;35.30;;;;;;5063950;28;20283;-72
2024/01/29 07:36:23;;;;;;;68.57;19.50;;;26.00;35.20;;;;;;5078995;28;20228;-75
2024/01/29 07:38:50;;;;;;;90.03;20.67;;;26.00;35.30;;;;;;5082080;28;20222;-71
2024/01/29 07:41:18;;;;;;;79.60;20.00;;;26.00;35.30;;;;;;5064727;28;20729;-70
2024/01/29 07:43:45;;;;;;;62.53;19.37;;;26.00;35.30;;;;;;5081021;28;20210;-71
2024/01/29 07:46:12;;;;;;;83.67;20.70;;;26.00;35.30;;;;;;5072586;28;20224;-72
2024/01/29 07:48:38;;;;;;;64.93;18.63;;;26.00;35.20;;;;;;5084375;28;20286;-71
2024/01/29 07:51:07;;;;;;;109.73;21.23;;;26.00;35.20;;;;;;5065207;28;20299;-72
2024/01/29 07:53:34;;;;;;;71.33;20.20;;;26.00;35.30;;;;;;5075101;28;20307;-78
2024/01/29 07:56:01;;;;;;;107.27;20.70;;;26.00;35.30;;;;;;5083740;28;20330;-73
2024/01/29 07:58:28;;;;;;;64.20;19.23;;;26.00;35.30;;;;;;5069322;28;20253;-71
2024/01/29 08:00:55;;;;;;;63.60;18.80;;;26.00;35.30;;;;;;5069340;28;20746;-69
2024/01/29 08:03:22;;;;;;;74.63;20.67;;;26.00;35.30;;;;;;5079617;28;20203;-76
2024/01/29 08:05:49;;;;;;;99.00;20.83;;;26.00;35.30;;;;;;5075130;28;20213;-78
2024/01/29 08:08:17;;;;;;;69.97;19.40;;;26.00;35.30;;;;;;5068930;28;20315;-70
2024/01/29 08:10:44;;;;;;;58.77;19.27;;;26.00;35.30;;;;;;5068513;28;20221;-73
2024/01/29 08:13:11;;;;;;;79.23;20.10;;;26.00;35.30;;;;;;5068445;28;20290;-83
2024/01/29 08:15:38;;;;;;;105.13;21.73;;;26.00;35.30;;;;;;5067253;28;20210;-72
2024/01/29 08:18:06;;;;;;;75.10;20.07;;;26.00;35.20;;;;;;5072387;28;20199;-74
2024/01/29 08:20:33;;;;;;;62.47;19.80;;;26.00;35.80;;;;;;5067794;28;20200;-71
2024/01/29 08:23:00;;;;;;;63.87;21.03;;;26.00;35.30;;;;;;5074312;28;20291;-71
2024/01/29 08:25:28;;;;;;;64.30;19.63;;;26.00;35.20;;;;;;5086122;28;20234;-73
2024/01/29 08:27:55;;;;;;;68.90;19.90;;;26.00;35.30;;;;;;5082357;28;20258;-73
2024/01/29 08:30:22;;;;;;;110.13;22.83;;;26.00;35.20;;;;;;5068206;28;20207;-76
2024/01/29 08:32:49;;;;;;;63.53;20.80;;;26.00;35.20;;;;;;5080105;28;20291;-74
2024/01/29 08:35:16;;;;;;;68.13;20.90;;;26.00;35.30;;;;;;5072404;28;20205;-76
2024/01/29 08:37:43;;;;;;;67.57;19.77;;;26.00;35.20;;;;;;5079889;28;20222;-72
2024/01/29 08:40:13;;;;;;;72.47;19.77;;;26.00;35.30;;;;;;5075918;28;20191;-77
2024/01/29 08:42:42;;;;;;;101.13;22.63;;;26.00;35.30;;;;;;5086562;28;20197;-82
2024/01/29 08:45:09;;;;;;;101.73;21.70;;;26.00;35.30;;;;;;5085963;28;20306;-73
2024/01/29 08:47:37;;;;;;;71.50;19.13;;;26.00;35.30;;;;;;5069594;28;20227;-83
2024/01/29 08:50:05;;;;;;;69.03;20.03;;;26.00;35.30;;;;;;5077192;28;20217;-81
2024/01/29 08:52:32;;;;;;;65.57;19.50;;;26.00;35.30;;;;;;5087254;28;20314;-85
2024/01/29 08:54:59;;;;;;;61.33;20.40;;;26.00;35.30;;;;;;5088168;28;20285;-84
2024/01/29 08:57:26;;;;;;;69.33;19.83;;;26.00;35.30;;;;;;5071734;28;20237;-77
2024/01/29 08:59:54;;;;;;;62.70;20.90;;;26.00;35.30;;;;;;5086366;28;20316;-82
2024/01/29 09:02:21;;;;;;;70.10;20.53;;;26.00;35.30;;;;;;5088223;28;20199;-77
2024/01/29 09:04:48;;;;;;;105.17;20.93;;;26.00;35.30;;;;;;5083985;28;20211;-79
2024/01/29 09:07:17;;;;;;;69.33;20.27;;;26.00;35.30;;;;;;5084551;28;20321;-86
2024/01/29 09:09:46;;;;;;;68.60;18.97;;;26.00;35.30;;;;;;5088229;28;20246;-81
2024/01/29 09:12:13;;;;;;;72.67;21.43;;;26.10;35.30;;;;;;5074313;28;20203;-82
2024/01/29 09:14:40;;;;;;;75.67;20.53;;;26.10;35.30;;;;;;5084482;28;20241;-83
2024/01/29 09:17:08;;;;;;;78.47;20.47;;;26.10;35.30;;;;;;5085978;28;20330;-84
2024/01/29 09:19:35;;;;;;;90.13;19.87;;;26.10;35.30;;;;;;5082134;28;20190;-79
2024/01/29 09:22:02;;;;;;;62.57;18.57;;;26.10;35.30;;;;;;5080435;28;20211;-76
2024/01/29 09:24:28;;;;;;;111.07;22.67;;;26.10;35.30;;;;;;5067806;28;20274;-74
2024/01/29 09:26:55;;;;;;;74.20;17.67;;;26.10;35.30;;;;;;5077982;28;20199;-75
2024/01/29 09:29:25;;;;;;;65.03;18.17;;;26.10;35.30;;;;;;5076199;28;20675;-72
2024/01/29 09:31:52;;;;;;;64.17;17.20;;;26.10;35.30;;;;;;5087127;28;20309;-72
2024/01/29 09:34:22;;;;;;;70.73;18.70;;;26.10;35.30;;;;;;5070453;28;20295;-72
2024/01/29 09:36:49;;;;;;;61.93;17.63;;;26.10;35.30;;;;;;5068070;28;20215;-71
2024/01/29 09:39:16;;;;;;;57.80;18.00;;;26.20;35.60;;;;;;5070840;28;20287;-72
2024/01/29 09:41:45;;;;;;;60.23;16.70;;;26.20;35.40;;;;;;5072710;28;20290;-73
2024/01/29 09:44:12;;;;;;;73.53;20.17;;;26.20;35.40;;;;;;5075507;28;20293;-72
2024/01/29 09:46:41;;;;;;;67.83;18.80;;;26.20;35.40;;;;;;5072818;28;20246;-72
2024/01/29 09:49:08;;;;;;;70.50;19.00;;;26.20;35.40;;;;;;5068422;28;20211;-77
2024/01/29 09:51:37;;;;;;;92.30;19.83;;;26.20;35.40;;;;;;5069884;28;20732;-71
2024/01/29 09:54:05;;;;;;;94.80;19.47;;;26.20;35.60;;;;;;5069721;28;20210;-73
2024/01/29 09:56:32;;;;;;;64.97;19.20;;;26.30;35.50;;;;;;5072978;28;20223;-72
2024/01/29 09:58:59;;;;;;;77.03;21.37;;;26.30;35.50;;;;;;5068020;28;20203;-73
2024/01/29 10:01:26;;;;;;;88.37;28.43;;;26.90;35.90;;;;;;5075750;28;20205;-71
2024/01/29 10:03:53;;;;;;;81.67;20.70;;;26.30;35.50;;;;;;5065191;28;20286;-73
2024/01/29 10:06:20;;;;;;;60.40;20.17;;;26.40;35.50;;;;;;5067704;28;20199;-77
2024/01/29 10:08:49;;;;;;;67.23;19.10;;;26.40;35.50;;;;;;5067494;28;20257;-77
2024/01/29 10:11:17;;;;;;;101.03;20.17;;;26.60;35.60;;;;;;5065024;28;20211;-78
2024/01/29 10:13:48;;;;;;;71.33;19.33;;;26.60;35.60;;;;;;5075759;28;20249;-77
2024/01/29 10:16:15;;;;;;;93.27;22.40;;;26.70;35.60;;;;;;5075987;28;20207;-76
2024/01/29 10:18:42;;;;;;;58.43;18.77;;;26.80;35.50;;;;;;5076294;28;20273;-78
2024/01/29 10:21:09;;;;;;;72.50;19.97;;;26.90;35.50;;;;;;5078105;28;20230;-82
2024/01/29 10:23:36;;;;;;;110.87;22.63;;;27.00;35.60;;;;;;5074675;28;20201;-76
2024/01/29 10:26:05;;;;;;;103.77;22.57;;;27.10;35.70;;;;;;5079224;28;20779;-83
2024/01/29 10:28:32;;;;;;;75.57;19.90;;;27.20;35.70;;;;;;5069798;28;21102;-79
2024/01/29 10:30:59;;;;;;;67.53;19.40;;;27.40;35.80;;;;;;5074196;28;20302;-81
2024/01/29 10:33:26;;;;;;;80.13;19.97;;;27.50;35.80;;;;;;5081593;28;20286;-79
2024/01/29 10:35:53;;;;;;;136.03;24.50;;;27.60;35.80;;;;;;5071655;28;20306;-77
2024/01/29 10:38:22;;;;;;;79.60;26.07;;;27.80;36.60;;;;;;5078291;28;20317;-70
2024/01/29 10:40:50;;;;;;;78.10;25.27;;;27.90;36.00;;;;;;5082039;28;20205;-76
2024/01/29 10:43:19;;;;;;;78.23;20.53;;;28.10;36.00;;;;;;5066470;28;20203;-73
2024/01/29 10:45:49;;;;;;;86.03;20.03;;;28.20;35.90;;;;;;5064511;28;20219;-73
2024/01/29 10:48:21;;;;;;;65.30;21.40;;;28.40;35.90;;;;;;5065679;28;20203;-74
2024/01/29 10:50:49;;;;;;;74.07;18.77;;;28.50;35.90;;;;;;5065057;28;20200;-73
2024/01/29 10:53:17;;;;;;;112.70;20.87;;;28.60;35.90;;;;;;5076814;28;20777;-73
2024/01/29 10:55:46;;;;;;;60.37;19.17;;;28.80;35.90;;;;;;5083117;28;20202;-73
2024/01/29 10:58:14;;;;;;;73.13;20.17;;;28.90;35.80;;;;;;5072233;28;20263;-73
2024/01/29 11:00:44;;;;;;;87.40;21.20;;;29.00;35.70;;;;;;5075066;28;20209;-73
2024/01/29 11:03:12;;;;;;;83.53;20.43;;;29.20;35.70;;;;;;5069704;28;20786;-73
2024/01/29 11:05:41;;;;;;;72.30;18.67;;;29.30;36.20;;;;;;5065378;28;20307;-72
2024/01/29 11:08:12;;;;;;;78.00;20.87;;;29.40;35.50;;;;;;5065006;28;20286;-74
2024/01/29 11:10:39;;;;;;;68.28;20.48;;;29.50;35.40;;;;;;5065486;28;20960;-73
2024/01/29 11:13:09;;;;;;;72.67;19.63;;;29.60;35.30;;;;;;5065573;28;20291;-73
2024/01/29 11:15:36;;;;;;;88.77;21.07;;;29.80;35.30;;;;;;5065386;28;20260;-75
2024/01/29 11:18:05;;;;;;;74.67;18.60;;;29.80;35.70;;;;;;5067211;28;20735;-73
2024/01/29 11:20:34;;;;;;;79.67;19.73;;;29.90;34.90;;;;;;5084771;28;20286;-73
2024/01/29 11:23:04;;;;;;;68.90;18.60;;;30.00;34.90;;;;;;5082227;28;20277;-73
2024/01/29 11:25:32;;;;;;;74.00;19.05;;;30.00;34.90;;;;;;5079334;28;20667;-74
2024/01/29 11:28:00;;;;;;;66.47;19.63;;;30.00;34.80;;;;;;5064789;28;20207;-73
2024/01/29 11:30:28;;;;;;;76.30;19.92;;;30.10;34.90;;;;;;5082133;28;20202;-73
2024/01/29 11:33:10;;;;;;;95.57;20.38;;;30.10;34.70;;;;;;5085409;28;20313;-74
2024/01/29 11:35:38;;;;;;;86.70;20.35;;;30.10;34.60;;;;;;5069241;28;20232;-74
2024/01/29 11:38:11;;;;;;;75.80;19.25;;;30.10;34.60;;;;;;5069182;28;20330;-73
2024/01/29 11:40:40;;;;;;;64.87;18.13;;;30.20;34.60;;;;;;5069329;28;20206;-73
2024/01/29 11:43:11;;;;;;;114.40;21.83;;;30.10;34.50;;;;;;5069048;28;20192;-73
2024/01/29 11:45:39;;;;;;;73.38;20.27;;;30.10;34.50;;;;;;5069174;28;20380;-75
2024/01/29 11:48:10;;;;;;;104.45;20.27;;;30.00;34.40;;;;;;5068613;28;20647;-73
2024/01/29 11:50:39;;;;;;;79.70;19.48;;;30.00;34.40;;;;;;5089137;28;20662;-73
2024/01/29 11:53:09;;;;;;;106.00;21.20;;;30.00;34.40;;;;;;5078483;28;20222;-73
2024/01/29 11:55:36;;;;;;;69.50;19.63;;;30.00;34.40;;;;;;5067653;28;20311;-74
2024/01/29 11:58:03;;;;;;;73.75;19.45;;;30.00;34.50;;;;;;5079182;28;20233;-73
2024/01/29 12:00:30;;;;;;;66.50;18.55;;;30.00;34.40;;;;;;5080830;28;20287;-77
2024/01/29 12:02:57;;;;;;;65.32;19.02;;;29.90;34.40;;;;;;5085505;28;20213;-73
2024/01/29 12:05:25;;;;;;;83.17;19.47;;;29.90;34.30;;;;;;5081562;28;20958;-73
2024/01/29 12:07:53;;;;;;;69.27;17.97;;;29.90;34.90;;;;;;5073276;28;20222;-73
2024/01/29 12:10:20;;;;;;;79.55;20.70;;;29.90;34.30;;;;;;5074719;28;20290;-73
2024/01/29 12:12:47;;;;;;;78.47;19.08;;;29.80;34.20;;;;;;5079998;28;20192;-73
2024/01/29 12:15:14;;;;;;;82.27;19.33;;;29.80;34.30;;;;;;5066218;28;20199;-73
2024/01/29 12:17:44;;;;;;;78.47;18.10;;;29.80;34.30;;;;;;5068659;28;20258;-73
2024/01/29 12:20:12;;;;;;;65.07;17.88;;;29.80;34.30;;;;;;5068177;28;20204;-73
2024/01/29 12:22:39;;;;;;;64.28;19.65;;;29.80;34.30;;;;;;5068658;28;20299;-73
2024/01/29 12:25:11;;;;;;;128.37;22.63;;;29.70;34.20;;;;;;5081831;28;20198;-75
2024/01/29 12:27:39;;;;;;;83.17;20.87;;;29.70;34.20;;;;;;5070698;28;20659;-73